Time;durP1;ratioP1;P1;durP2;ratioP2;P2;SDS_P1;SDS_P2;PMS_P1;PMS_P2;Temp;Humidity;BMP_temperature;BMP_pressure;BME280_temperature;BME280_humidity;BME280_pressure;Samples;Min_cycle;Max_cycle;Signal;HPM_P1;HPM_P2
2024/02/23 00:00:07;;;;;;;15.13;9.55;;;;;;;9.36;57.04;99144.78;4923038;29;20106;-93
2024/02/23 00:02:32;;;;;;;12.75;9.07;;;;;;;9.38;57.08;99145.31;4906337;29;20073;-94
2024/02/23 00:04:58;;;;;;;19.35;9.35;;;;;;;9.18;57.13;99121.94;4907286;29;20083;-94
2024/02/23 00:07:24;;;;;;;18.08;8.90;;;;;;;9.15;57.23;99115.22;4906234;29;20038;-94
2024/02/23 00:09:49;;;;;;;11.85;8.45;;;;;;;9.23;57.36;99136.16;4922288;29;20497;-94
2024/02/23 00:12:15;;;;;;;13.63;8.02;;;;;;;9.09;57.76;99122.44;4906183;29;20023;-93
2024/02/23 00:14:40;;;;;;;12.25;7.88;;;;;;;9.14;58.10;99131.59;4906543;29;20137;-94
2024/02/23 00:17:06;;;;;;;12.48;8.18;;;;;;;9.08;58.59;99131.56;4906521;29;20043;-94
2024/02/23 00:19:31;;;;;;;12.68;8.20;;;;;;;8.97;58.17;99111.13;4921962;29;20035;-94
2024/02/23 00:21:59;;;;;;;10.93;7.68;;;;;;;8.98;58.36;99114.63;4905869;29;20122;-94
2024/02/23 00:24:25;;;;;;;15.68;8.43;;;;;;;8.94;58.83;99116.22;4924268;29;20031;-94
2024/02/23 00:26:51;;;;;;;16.45;8.50;;;;;;;8.88;59.37;99102.78;4910177;29;20027;-94
2024/02/23 00:29:17;;;;;;;12.48;7.90;;;;;;;8.86;58.93;99112.97;4910965;29;20397;-94
2024/02/23 00:31:42;;;;;;;16.05;8.32;;;;;;;8.96;59.08;99122.94;4909958;29;20134;-94
2024/02/23 00:34:10;;;;;;;10.70;7.85;;;;;;;8.80;59.12;99089.03;4909895;29;20051;-94
2024/02/23 00:36:38;;;;;;;16.75;9.30;;;;;;;8.72;59.35;99081.53;4910484;29;20033;-94
2024/02/23 00:39:03;;;;;;;14.60;9.35;;;;;;;8.76;59.57;99098.69;4910038;29;20032;-94
2024/02/23 00:41:29;;;;;;;13.52;9.27;;;;;;;8.68;59.84;99100.81;4909365;29;20102;-94
2024/02/23 00:43:54;;;;;;;14.35;9.35;;;;;;;8.76;59.80;99106.75;4906600;29;20116;-94
2024/02/23 00:46:20;;;;;;;13.93;9.48;;;;;;;8.76;59.97;99104.06;4924297;29;20505;-93
2024/02/23 00:48:45;;;;;;;15.55;9.10;;;;;;;8.68;59.67;99083.91;4925487;29;20150;-94
2024/02/23 00:51:11;;;;;;;14.70;8.80;;;;;;;8.77;59.95;99103.81;4909369;29;20031;-92
2024/02/23 00:53:36;;;;;;;15.35;7.70;;;;;;;8.62;59.66;99077.72;4909674;29;20067;-94
2024/02/23 00:56:02;;;;;;;11.07;8.13;;;;;;;8.71;59.33;99088.75;4909544;29;20041;-94
2024/02/23 00:58:27;;;;;;;14.23;8.73;;;;;;;8.73;59.25;99086.63;4909511;29;20143;-93
2024/02/23 01:00:53;;;;;;;8.98;6.28;;;;;;;8.70;58.86;99077.22;4909920;29;20126;-93
2024/02/23 01:03:18;;;;;;;9.10;6.40;;;;;;;8.69;57.82;99069.41;4909634;29;20498;-94
2024/02/23 01:05:44;;;;;;;8.73;5.88;;;;;;;8.95;57.08;99093.69;4910780;29;20031;-94
2024/02/23 01:08:09;;;;;;;9.57;6.72;;;;;;;8.92;57.20;99072.72;4909164;29;20031;-94
2024/02/23 01:10:35;;;;;;;8.68;6.28;;;;;;;8.99;57.02;99075.97;4909723;29;20110;-94
2024/02/23 01:13:00;;;;;;;9.10;6.00;;;;;;;9.19;56.18;99083.25;4909361;29;20058;-93
2024/02/23 01:15:26;;;;;;;9.40;5.95;;;;;;;9.25;56.29;99087.53;4909569;29;20028;-94
2024/02/23 01:17:52;;;;;;;12.85;8.13;;;;;;;9.01;57.47;99061.19;4908878;29;20027;-94
2024/02/23 01:20:17;;;;;;;11.50;7.88;;;;;;;8.95;58.77;99064.94;4909165;29;20118;-94
2024/02/23 01:22:43;;;;;;;14.05;9.55;;;;;;;8.84;58.65;99068.66;4909240;29;20509;-93
2024/02/23 01:25:09;;;;;;;14.23;8.93;;;;;;;8.88;59.02;99067.06;4925122;29;20031;-95
2024/02/23 01:27:34;;;;;;;15.50;9.95;;;;;;;8.78;58.67;99059.81;4908654;29;20031;-94
2024/02/23 01:30:00;;;;;;;19.95;10.70;;;;;;;8.76;58.96;99061.94;4909290;29;20032;-94
2024/02/23 01:32:25;;;;;;;16.17;10.02;;;;;;;8.75;58.96;99059.50;4925216;29;20489;-94
2024/02/23 01:34:51;;;;;;;18.17;10.00;;;;;;;8.73;59.22;99067.81;4924278;28;20059;-94
2024/02/23 01:37:17;;;;;;;11.50;8.55;;;;;;;8.78;59.54;99073.22;4908726;29;20541;-94
2024/02/23 01:39:42;;;;;;;20.30;10.40;;;;;;;8.77;59.52;99068.09;4909057;29;20034;-94
2024/02/23 01:42:08;;;;;;;9.68;6.97;;;;;;;8.78;58.89;99072.38;4924700;29;20031;-94
2024/02/23 01:44:34;;;;;;;9.50;6.25;;;;;;;8.75;57.98;99051.47;4924789;29;20031;-94
2024/02/23 01:46:59;;;;;;;14.52;7.80;;;;;;;8.81;58.50;99055.78;4909546;29;20031;-93
2024/02/23 01:49:31;;;;;;;12.15;6.85;;;;;;;8.85;58.47;99062.22;4909288;29;20034;-93
2024/02/23 01:51:57;;;;;;;10.57;6.70;;;;;;;8.84;57.98;99055.22;4910921;29;20458;-94
2024/02/23 01:54:23;;;;;;;12.15;8.18;;;;;;;8.83;58.66;99049.06;4909049;29;20106;-95
2024/02/23 01:56:49;;;;;;;12.88;7.70;;;;;;;8.83;59.11;99043.69;4908309;29;20043;-94
2024/02/23 01:59:14;;;;;;;9.10;6.60;;;;;;;8.80;58.72;99040.72;4908355;29;20105;-94
2024/02/23 02:01:42;;;;;;;9.95;6.13;;;;;;;8.96;57.78;99055.78;4908725;29;20094;-94
2024/02/23 02:04:10;;;;;;;10.18;7.13;;;;;;;8.99;57.35;99046.44;4908435;29;20516;-94
2024/02/23 02:06:36;;;;;;;10.27;6.53;;;;;;;9.13;57.15;99058.28;4924639;29;20058;-94
2024/02/23 02:09:01;;;;;;;11.98;6.85;;;;;;;9.07;56.88;99044.03;4908114;29;20174;-93
2024/02/23 02:11:27;;;;;;;11.23;7.60;;;;;;;9.07;57.04;99049.38;4924221;29;20093;-94
2024/02/23 02:13:53;;;;;;;12.63;7.53;;;;;;;9.07;57.50;99060.13;4924494;29;20055;-94
2024/02/23 02:16:18;;;;;;;11.98;8.20;;;;;;;8.99;57.48;99057.16;4907958;29;20023;-94
2024/02/23 02:18:46;;;;;;;8.40;6.20;;;;;;;9.01;56.18;99049.66;4908584;29;20482;-94
2024/02/23 02:21:11;;;;;;;12.35;6.95;;;;;;;9.15;56.88;99071.41;4908613;29;20045;-94
2024/02/23 02:23:38;;;;;;;10.50;7.00;;;;;;;9.12;56.54;99053.97;4908449;29;20031;-94
2024/02/23 02:26:03;;;;;;;13.48;8.23;;;;;;;9.10;57.80;99054.22;4923397;29;20027;-94
2024/02/23 02:28:29;;;;;;;12.70;7.85;;;;;;;9.03;58.29;99059.06;4908253;29;20027;-93
2024/02/23 02:30:55;;;;;;;11.23;7.82;;;;;;;8.90;58.45;99049.63;4907945;29;20054;-94
2024/02/23 02:33:20;;;;;;;14.30;8.45;;;;;;;8.82;58.87;99052.84;4908116;29;20079;-94
2024/02/23 02:35:46;;;;;;;14.63;9.40;;;;;;;8.68;58.77;99047.16;4923475;29;20401;-94
2024/02/23 02:38:11;;;;;;;14.07;9.20;;;;;;;8.67;59.09;99050.91;4907960;29;20086;-94
2024/02/23 02:40:37;;;;;;;15.48;9.32;;;;;;;8.52;59.82;99050.03;4907593;29;20090;-94
2024/02/23 02:43:03;;;;;;;12.25;8.52;;;;;;;8.52;60.08;99060.78;4907986;29;20031;-93
2024/02/23 02:45:29;;;;;;;14.05;8.10;;;;;;;8.50;60.06;99058.34;4907700;29;20027;-94
2024/02/23 02:47:56;;;;;;;15.77;8.88;;;;;;;8.45;59.95;99052.97;4907518;29;20031;-93
2024/02/23 02:50:21;;;;;;;13.77;9.05;;;;;;;8.50;59.93;99066.41;4908471;29;20038;-94
2024/02/23 02:52:47;;;;;;;14.98;8.82;;;;;;;8.43;60.36;99057.78;4923559;29;20023;-93
2024/02/23 02:55:12;;;;;;;14.50;8.93;;;;;;;8.52;60.65;99076.88;4907111;29;20117;-93
2024/02/23 02:57:38;;;;;;;16.00;8.95;;;;;;;8.33;60.40;99049.69;4907626;29;20026;-94
2024/02/23 03:00:08;;;;;;;12.68;8.18;;;;;;;8.32;60.35;99046.16;4908360;29;20030;-94
2024/02/23 03:02:36;;;;;;;14.20;8.18;;;;;;;8.42;59.81;99058.84;4924365;29;20023;-93
2024/02/23 03:05:02;;;;;;;12.48;8.48;;;;;;;8.43;60.67;99069.34;4907420;29;20098;-94
2024/02/23 03:07:28;;;;;;;12.50;7.93;;;;;;;8.40;60.47;99053.72;4907461;29;20035;-93
2024/02/23 03:09:54;;;;;;;13.85;7.75;;;;;;;8.36;60.58;99049.13;4907537;29;20521;-94
2024/02/23 03:12:19;;;;;;;11.13;7.35;;;;;;;8.49;60.50;99065.59;4908056;29;20058;-93
2024/02/23 03:14:45;;;;;;;11.13;8.05;;;;;;;8.57;60.19;99061.63;4906778;29;20486;-93
2024/02/23 03:17:10;;;;;;;14.82;8.88;;;;;;;8.46;60.66;99058.06;4907663;29;20386;-95
2024/02/23 03:19:36;;;;;;;12.50;8.73;;;;;;;8.30;61.21;99056.38;4922956;29;20019;-96
2024/02/23 03:22:02;;;;;;;13.30;9.05;;;;;;;8.40;60.40;99063.66;4922780;29;20027;-96
2024/02/23 03:24:28;;;;;;;12.60;9.15;;;;;;;8.40;60.13;99058.28;4906889;29;20043;-95
2024/02/23 03:26:53;;;;;;;16.63;8.90;;;;;;;8.50;60.30;99066.41;4922599;29;20062;-95
2024/02/23 03:29:20;;;;;;;12.30;8.63;;;;;;;8.44;60.46;99054.84;4907154;29;20031;-95
2024/02/23 03:31:45;;;;;;;13.15;7.60;;;;;;;8.53;60.46;99079.31;4907206;29;20039;-95
2024/02/23 03:34:13;;;;;;;11.90;8.23;;;;;;;8.37;60.44;99056.94;4906495;29;20074;-95
2024/02/23 03:36:38;;;;;;;11.85;7.95;;;;;;;8.30;60.78;99051.81;4907060;29;20486;-96
2024/02/23 03:39:04;;;;;;;12.25;7.07;;;;;;;8.30;60.50;99045.66;4906876;29;20179;-95
2024/02/23 03:41:29;;;;;;;9.90;7.28;;;;;;;8.39;59.79;99064.72;4906702;29;20434;-95
2024/02/23 03:43:55;;;;;;;10.95;6.75;;;;;;;8.46;59.98;99068.78;4906590;29;20490;-95
2024/02/23 03:46:21;;;;;;;11.38;7.85;;;;;;;8.54;59.45;99078.22;4906199;29;20094;-95
2024/02/23 03:48:46;;;;;;;10.73;7.13;;;;;;;8.36;59.51;99055.31;4906950;29;20031;-95
2024/02/23 03:51:12;;;;;;;9.00;7.28;;;;;;;8.32;59.77;99054.22;4906413;29;20019;-95
2024/02/23 03:53:37;;;;;;;10.38;7.20;;;;;;;8.38;59.75;99065.78;4905806;29;20042;-94
2024/02/23 03:56:03;;;;;;;9.70;7.25;;;;;;;8.23;60.32;99045.06;4906537;29;20082;-96
2024/02/23 03:58:29;;;;;;;10.05;6.85;;;;;;;8.34;60.40;99059.31;4921439;29;20117;-96
2024/02/23 04:00:54;;;;;;;10.50;6.65;;;;;;;8.38;59.90;99063.91;4906285;29;20023;-96
2024/02/23 04:03:20;;;;;;;11.00;7.40;;;;;;;8.27;59.86;99046.16;4906480;29;20490;-95
2024/02/23 04:05:45;;;;;;;13.23;6.80;;;;;;;8.31;59.52;99047.25;4906735;29;20039;-96
2024/02/23 04:08:11;;;;;;;8.82;5.68;;;;;;;8.32;59.03;99048.03;4906223;29;20086;-95
2024/02/23 04:10:37;;;;;;;10.00;6.72;;;;;;;8.35;58.73;99047.53;4923235;29;20117;-95
2024/02/23 04:13:02;;;;;;;10.27;7.00;;;;;;;8.46;58.73;99059.94;4906017;29;20038;-95
2024/02/23 04:15:28;;;;;;;9.65;6.68;;;;;;;8.45;58.86;99050.28;4919261;29;20491;-96
2024/02/23 04:17:53;;;;;;;14.27;6.85;;;;;;;8.43;58.52;99033.66;4906425;29;20019;-96
2024/02/23 04:20:19;;;;;;;8.60;6.28;;;;;;;8.46;58.60;99041.97;4906945;29;20055;-96
2024/02/23 04:22:44;;;;;;;12.02;6.47;;;;;;;8.52;58.33;99037.44;4922801;29;20519;-96
2024/02/23 04:33:04;;;;;;;10.25;7.03;;;;;;;8.55;57.84;99044.13;5120388;23;20035;-96
2024/02/23 04:35:40;;;;;;;10.40;7.22;;;;;;;8.63;57.17;99046.31;4929826;28;20112;-96
2024/02/23 04:38:11;;;;;;;9.25;6.70;;;;;;;8.64;56.96;99046.06;4931599;28;20058;-96
2024/02/23 04:40:49;;;;;;;12.25;6.85;;;;;;;8.69;56.76;99046.09;4949751;28;20038;-96
2024/02/23 04:43:45;;;;;;;12.88;7.65;;;;;;;8.71;56.76;99053.84;4953102;28;20519;-96
2024/02/23 04:46:23;;;;;;;9.57;6.35;;;;;;;8.73;56.40;99056.28;4957994;28;20041;-96
2024/02/23 04:49:02;;;;;;;29.70;8.10;;;;;;;8.97;56.80;99078.91;4968722;28;20050;-96
2024/02/23 04:51:36;;;;;;;13.00;8.02;;;;;;;8.79;56.48;99056.03;4970385;28;20046;-96
2024/02/23 05:29:22;;;;;;;17.20;10.45;;;;;;;9.01;55.92;99081.88;4836640;28;3036164;-96
2024/02/23 05:31:52;;;;;;;16.98;9.70;;;;;;;9.13;55.95;99101.25;4906909;29;20031;-93
2024/02/23 05:34:18;;;;;;;20.50;10.90;;;;;;;9.01;56.89;99079.19;4900470;29;20031;-96
2024/02/23 05:36:46;;;;;;;25.65;11.40;;;;;;;9.02;57.06;99078.91;4909439;29;20110;-96
2024/02/23 05:39:15;;;;;;;36.97;19.67;;;;;;;8.97;57.57;99078.91;4925235;29;20027;-96
2024/02/23 05:41:46;;;;;;;50.90;21.17;;;;;;;9.02;57.87;99089.66;4924519;29;20035;-95
2024/02/23 05:44:29;;;;;;;34.80;13.70;;;;;;;8.99;57.23;99078.66;4908401;29;20031;-94
2024/02/23 06:23:47;;;;;;;39.60;15.38;;;;;;;9.39;59.07;99120.88;3309150;23;20298;-94
2024/02/23 06:26:16;;;;;;;57.63;28.25;;;;;;;9.39;59.24;99106.66;4959151;28;20066;-95
2024/02/23 06:33:52;;;;;;;29.70;13.55;;;;;;;9.60;57.65;99113.66;4979999;28;20050;-94
2024/02/23 06:36:29;;;;;;;29.90;17.77;;;;;;;9.74;57.16;99111.25;4931208;29;20038;-94
2024/02/23 06:38:57;;;;;;;31.00;18.73;;;;;;;9.79;56.79;99103.16;4964531;28;20409;-94
2024/02/23 06:41:43;;;;;;;37.17;17.48;;;;;;;9.96;55.80;99118.19;4937048;28;20034;-95
2024/02/23 06:44:18;;;;;;;22.85;11.73;;;;;;;10.05;55.08;99119.28;4941079;28;20461;-94
2024/02/23 06:46:50;;;;;;;26.17;11.05;;;;;;;10.21;55.01;99120.06;4958831;28;20033;-96
2024/02/23 06:49:16;;;;;;;56.35;29.45;;;;;;;10.28;54.69;99110.63;4966142;28;20034;-95
2024/02/23 06:51:46;;;;;;;27.50;14.05;;;;;;;10.41;54.31;99124.63;4949941;28;20596;-96
2024/02/23 06:54:34;;;;;;;;;;;;;;;;;;;;;
2024/02/23 06:57:00;;;;;;;32.38;14.70;;;;;;;10.58;54.79;99117.03;4924735;29;20139;-96
2024/02/23 06:59:32;;;;;;;22.25;13.85;;;;;;;10.66;55.47;99119.16;4933337;28;20022;-96
2024/02/23 07:07:40;;;;;;;35.67;18.50;;;;;;;10.89;54.32;99115.03;5270281;23;20094;-96
2024/02/23 07:16:40;;;;;;;23.77;11.90;;;;;;;11.29;51.45;99112.38;5153934;23;20066;-96
2024/02/23 07:19:07;;;;;;;18.90;11.77;;;;;;;11.51;50.88;99123.53;4937824;28;20041;-93
2024/02/23 07:21:36;;;;;;;23.85;14.23;;;;;;;11.64;51.05;99114.03;4928746;28;20144;-95
2024/02/23 07:24:56;;;;;;;;;;;;;;;;;;;;;
2024/02/23 07:27:35;;;;;;;22.70;14.77;;;;;;;11.81;49.89;99108.22;4921222;28;20074;-96
2024/02/23 07:58:27;;;;;;;17.50;7.60;;;;;;;12.58;45.98;99096.66;5048361;23;20047;31
2024/02/23 08:01:20;;;;;;;15.77;7.93;;;;;;;12.75;45.43;99088.09;4866518;29;20045;-96
2024/02/23 08:57:26;;;;;;;7.75;5.05;;;;;;;14.89;39.18;99104.56;4770776;23;20269;31
2024/02/23 09:12:20;;;;;;;19.38;6.32;;;;;;;15.24;38.12;99085.91;4966185;28;20471;-94
2024/02/23 09:15:10;;;;;;;8.00;5.70;;;;;;;15.33;37.51;99096.81;4940870;29;20063;-95
2024/02/23 09:17:58;;;;;;;15.88;6.60;;;;;;;15.36;37.32;99082.66;4938298;29;20042;-96
2024/02/23 09:21:03;;;;;;;7.93;5.78;;;;;;;15.51;36.72;99087.72;4950765;29;20023;-96
2024/02/23 09:23:32;;;;;;;16.75;6.45;;;;;;;15.60;37.10;99095.13;4968993;29;20039;-96
2024/02/23 09:29:17;;;;;;;11.20;7.07;;;;;;;15.90;36.19;99099.03;4972313;28;19926;-96
2024/02/23 09:32:02;;;;;;;8.85;5.82;;;;;;;15.80;35.42;99083.00;4935630;29;20043;-96
2024/02/23 10:10:18;;;;;;;;;;;;;;;;;;;;;
2024/02/23 10:26:13;;;;;;;6.45;4.20;;;;;;;16.74;32.10;99021.97;5493143;23;20043;-95
2024/02/23 10:28:41;;;;;;;6.18;4.40;;;;;;;16.89;30.95;99045.22;4932093;28;20178;-96
2024/02/23 10:31:28;;;;;;;7.80;4.22;;;;;;;16.99;31.30;99046.03;4931140;29;20023;-95
2024/02/23 10:34:15;;;;;;;;;;;;;;;;;;;;;
2024/02/23 10:36:59;;;;;;;6.15;4.18;;;;;;;16.92;31.59;99016.59;4966199;28;20082;-96
2024/02/23 10:39:31;;;;;;;8.52;4.55;;;;;;;16.88;31.50;99007.47;4934546;28;20424;-94
2024/02/23 10:42:27;;;;;;;5.72;4.10;;;;;;;17.14;31.06;99031.94;4948606;28;20042;-96
2024/02/23 10:45:22;;;;;;;8.25;4.90;;;;;;;17.25;30.34;99025.06;4985051;28;20049;-96
2024/02/23 10:48:21;;;;;;;5.28;3.85;;;;;;;17.20;29.72;99018.97;4987552;28;20027;-96
2024/02/23 10:50:46;;;;;;;;;;;;;;;17.27;29.45;99019.31;4953379;28;20023;-96
2024/02/23 10:53:19;;;;;;;6.10;4.00;;;;;;;17.28;29.61;99010.00;4965090;28;19914;-95
2024/02/23 10:55:53;;;;;;;5.93;3.47;;;;;;;17.29;29.93;98996.09;4930193;29;20039;-96
2024/02/23 10:58:19;;;;;;;5.63;3.20;;;;;;;17.34;29.86;98995.91;4897117;29;20426;-95
2024/02/23 11:11:22;;;;;;;7.28;4.03;;;;;;;17.36;28.95;98969.16;4853552;29;20041;-96
2024/02/23 11:17:55;;;;;;;7.15;4.00;;;;;;;17.43;29.28;98954.25;4895264;29;20039;-95
2024/02/23 11:20:53;;;;;;;6.28;4.00;;;;;;;17.54;28.71;98956.31;4927523;29;20039;-95
2024/02/23 11:23:43;;;;;;;5.88;3.92;;;;;;;17.62;28.59;98959.34;4919797;29;20158;-96
2024/02/23 11:26:37;;;;;;;6.68;4.68;;;;;;;17.68;28.46;98961.56;4934577;29;20047;-95
2024/02/23 11:29:12;;;;;;;6.82;4.07;;;;;;;17.67;27.69;98959.16;4955444;28;20114;-95
2024/02/23 11:35:34;;;;;;;6.10;4.55;;;;;;;17.63;29.32;98950.84;4966891;28;20059;-96
2024/02/23 11:38:34;;;;;;;9.88;5.65;;;;;;;17.65;30.13;98964.94;4909838;29;20040;-96
2024/02/23 11:41:05;;;;;;;6.47;4.82;;;;;;;17.56;30.30;98969.63;4918487;29;20123;-96
2024/02/23 11:44:08;;;;;;;6.53;4.65;;;;;;;17.54;30.25;98969.94;4894840;29;20032;-96
2024/02/23 11:47:16;;;;;;;8.63;4.78;;;;;;;17.78;29.84;98993.06;4910387;29;20082;-96
2024/02/23 12:43:57;;;;;;;6.90;4.80;;;;;;;17.86;29.65;98931.56;4990809;28;20047;-96
2024/02/23 12:46:57;;;;;;;7.40;4.55;;;;;;;17.78;28.84;98925.00;4961028;28;20050;-96
2024/02/23 12:49:26;;;;;;;8.23;4.90;;;;;;;17.74;29.20;98924.88;4968068;28;20059;-96
2024/02/23 12:52:13;;;;;;;5.28;4.13;;;;;;;17.81;28.92;98929.00;4974459;28;20026;-96
2024/02/23 12:58:17;;;;;;;6.95;4.43;;;;;;;17.68;29.29;98915.28;4974300;28;20027;-96
2024/02/23 13:00:52;;;;;;;8.35;4.80;;;;;;;17.59;28.93;98933.56;4914430;29;20123;-96
2024/02/23 13:03:25;;;;;;;5.85;4.57;;;;;;;17.70;29.14;98934.81;4897632;29;20120;-96
2024/02/23 13:07:00;;;;;;;;;;;;;;;;;;;;;
2024/02/23 13:10:02;;;;;;;7.70;4.82;;;;;;;17.87;29.14;98950.31;4898888;29;20056;-96
2024/02/23 13:15:51;;;;;;;7.90;4.72;;;;;;;17.59;29.07;98925.41;4871935;29;20097;-96
2024/02/23 13:18:31;;;;;;;6.05;4.38;;;;;;;17.75;29.35;98931.09;4857663;29;20045;-96
2024/02/23 13:21:28;;;;;;;;;;;;;;;;;;;;;
2024/02/23 13:24:22;;;;;;;11.60;7.30;;;;;;;17.73;28.98;98908.84;4882767;29;20044;-96
2024/02/23 13:26:57;;;;;;;9.38;5.28;;;;;;;17.81;29.39;98923.56;4917342;29;20074;-96
2024/02/23 13:29:23;;;;;;;9.23;4.90;;;;;;;17.80;29.05;98921.94;4881588;29;20051;-96
2024/02/23 13:32:07;;;;;;;7.25;4.35;;;;;;;17.83;28.82;98921.34;4893338;29;20095;-96
2024/02/23 13:38:02;;;;;;;5.20;3.95;;;;;;;17.77;28.57;98916.03;4901019;29;20062;-96
2024/02/23 13:40:36;;;;;;;4.60;3.65;;;;;;;17.92;28.23;98933.78;4836200;29;20049;-96
2024/02/23 13:43:19;;;;;;;6.25;4.07;;;;;;;17.72;27.95;98904.50;4887185;29;20079;-96
2024/02/23 13:47:09;;;;;;;7.30;4.57;;;;;;;17.74;28.46;98892.19;4895989;29;20047;-96
2024/02/23 13:49:59;;;;;;;5.25;3.80;;;;;;;17.78;28.16;98911.38;4813831;29;20046;-96
2024/02/23 13:52:32;;;;;;;9.10;5.05;;;;;;;17.80;28.17;98911.06;4821594;29;20065;-96
2024/02/23 14:01:35;;;;;;;6.93;4.22;;;;;;;17.81;28.61;98910.75;4817682;29;20049;-96
2024/02/23 14:04:22;;;;;;;;;;;;;;;;;;;;;
2024/02/23 14:06:48;;;;;;;9.07;6.00;;;;;;;17.52;28.61;98901.41;4802514;29;20130;-94
2024/02/23 14:09:56;;;;;;;9.10;4.60;;;;;;;17.54;28.48;98892.91;4837331;29;20057;-96
2024/02/23 14:12:22;;;;;;;6.60;4.65;;;;;;;17.53;28.54;98897.53;4838698;29;20042;-96
2024/02/23 14:15:00;;;;;;;7.50;4.28;;;;;;;17.58;28.98;98915.66;4836926;29;20039;-95
2024/02/23 14:17:49;;;;;;;5.72;4.30;;;;;;;17.43;29.18;98889.75;4871989;29;20069;-96
2024/02/23 14:20:20;;;;;;;8.18;4.80;;;;;;;17.62;29.08;98921.22;4834751;29;20045;-95
2024/02/23 14:22:52;;;;;;;5.95;4.68;;;;;;;17.55;29.15;98911.63;4809098;29;20243;-95
2024/02/23 14:25:51;;;;;;;9.82;5.78;;;;;;;17.65;28.96;98918.66;4844543;29;20039;-96
2024/02/23 14:28:29;;;;;;;6.93;4.80;;;;;;;17.56;28.99;98902.34;4849917;29;20062;-96
2024/02/23 14:31:03;;;;;;;10.95;6.38;;;;;;;17.46;29.20;98893.75;4835304;29;20100;-96
2024/02/23 14:33:33;;;;;;;7.68;5.18;;;;;;;17.54;29.60;98907.31;4816120;29;20026;-96
2024/02/23 14:36:28;;;;;;;5.03;3.80;;;;;;;17.51;29.11;98899.00;4864321;29;20033;-95
2024/02/23 14:38:54;;;;;;;10.75;5.47;;;;;;;17.55;29.78;98906.19;4844650;29;20086;-96
2024/02/23 14:41:23;;;;;;;9.35;5.97;;;;;;;17.52;29.95;98904.13;4811929;29;20141;-95
2024/02/23 14:43:50;;;;;;;7.68;4.53;;;;;;;17.48;29.67;98911.34;4796862;29;20046;-95
2024/02/23 14:46:18;;;;;;;8.00;4.05;;;;;;;17.50;29.72;98920.00;4813718;29;20041;-95
2024/02/23 14:48:59;;;;;;;6.35;4.30;;;;;;;17.42;29.55;98917.31;4830932;29;20058;-96
2024/02/23 14:51:31;;;;;;;6.05;4.00;;;;;;;17.34;29.58;98916.19;4818563;29;20044;-96
2024/02/23 14:54:13;;;;;;;8.00;4.63;;;;;;;17.38;30.35;98928.81;4853641;29;20120;-96
2024/02/23 14:56:39;;;;;;;;;;;;;;;17.38;29.91;98931.53;4857965;29;20045;-94
2024/02/23 14:59:12;;;;;;;8.05;4.30;;;;;;;17.21;30.56;98909.03;4889298;29;19922;-96
2024/02/23 15:01:38;;;;;;;5.43;3.78;;;;;;;17.28;30.47;98920.22;4903786;29;20028;-95
2024/02/23 15:04:17;;;;;;;7.70;4.30;;;;;;;17.16;30.23;98918.16;4895063;29;20074;-96
2024/02/23 15:06:50;;;;;;;6.68;4.30;;;;;;;17.13;30.47;98918.81;4861226;29;20033;-96
2024/02/23 15:09:25;;;;;;;7.97;5.20;;;;;;;17.04;31.08;98909.88;4876199;29;20047;-96
2024/02/23 15:12:29;;;;;;;;;;;;;;;;;;;;;
2024/02/23 15:17:52;;;;;;;9.57;5.93;;;;;;;16.96;31.25;98919.63;4894478;29;20031;-96
2024/02/23 15:20:19;;;;;;;8.05;6.00;;;;;;;16.95;30.95;98921.56;4884236;29;20036;-95
2024/02/23 15:22:46;;;;;;;15.82;9.52;;;;;;;16.90;31.10;98916.28;4893426;29;20055;-96
2024/02/23 15:25:30;;;;;;;16.48;8.38;;;;;;;16.96;31.69;98933.25;4897802;29;20032;-96
2024/02/23 15:35:22;;;;;;;23.67;7.38;;;;;;;16.52;34.63;98940.56;4946394;29;20563;-96
2024/02/23 15:37:50;;;;;;;16.02;6.97;;;;;;;16.32;33.96;98921.03;4910104;29;20044;-96
2024/02/23 15:40:15;;;;;;;11.20;5.97;;;;;;;16.34;34.48;98926.94;4905813;29;20035;-93
2024/02/23 15:42:56;;;;;;;;;;;;;;;;;;;;;
2024/02/23 15:45:29;;;;;;;22.05;10.43;;;;;;;16.05;34.40;98919.38;4906247;29;20119;-95
2024/02/23 15:48:00;;;;;;;;;;;;;;;16.21;33.90;98951.53;4877424;29;20072;-96
2024/02/23 15:50:30;;;;;;;8.73;4.93;;;;;;;16.02;33.46;98947.19;4910157;29;19971;-96
2024/02/23 15:53:21;;;;;;;8.65;5.70;;;;;;;15.86;33.59;98933.22;4864117;29;20036;-96
2024/02/23 15:55:59;;;;;;;14.60;6.53;;;;;;;15.82;33.72;98937.69;4878077;29;20067;-94
2024/02/23 15:58:44;;;;;;;28.67;7.88;;;;;;;15.78;35.05;98942.13;4932381;29;20028;-96
2024/02/23 16:01:18;;;;;;;19.60;7.03;;;;;;;15.78;35.65;98963.06;4932414;29;20107;-96
2024/02/23 16:04:27;;;;;;;12.27;6.25;;;;;;;15.68;35.29;98974.94;4942585;29;20036;-96
2024/02/23 16:06:58;;;;;;;11.68;5.80;;;;;;;15.63;36.25;98984.03;4941966;29;20119;-96
2024/02/23 16:09:34;;;;;;;13.47;5.70;;;;;;;15.34;37.36;98963.59;4941494;28;20118;-96
2024/02/23 16:12:36;;;;;;;;;;;;;;;;;;;;;
2024/02/23 16:18:32;;;;;;;10.85;6.70;;;;;;;15.16;39.11;98959.97;4967132;28;20027;-96
2024/02/23 16:21:18;;;;;;;;;;;;;;;;;;;;;
2024/02/23 16:23:50;;;;;;;10.43;4.38;;;;;;;15.03;39.23;98960.03;4931256;29;20107;-95
2024/02/23 16:26:20;;;;;;;;;;;;;;;15.18;39.60;98992.22;4942033;29;20593;-96
2024/02/23 16:28:50;;;;;;;12.77;4.40;;;;;;;15.08;39.71;98981.59;4943184;29;19978;-96
2024/02/23 16:31:25;;;;;;;8.35;4.53;;;;;;;14.86;39.93;98958.00;4927025;29;20529;-95
2024/02/23 16:33:57;;;;;;;15.00;5.82;;;;;;;14.93;40.41;98977.34;4927533;29;20058;-96
2024/02/23 16:36:22;;;;;;;10.95;4.60;;;;;;;14.82;40.36;98971.38;4942221;29;20497;-96
2024/02/23 16:38:51;;;;;;;25.90;6.88;;;;;;;14.84;40.58;98987.34;4925532;29;20019;-96
2024/02/23 16:41:22;;;;;;;8.98;4.07;;;;;;;14.77;40.36;98976.09;4941127;29;20047;-96
2024/02/23 16:50:25;;;;;;;9.00;4.82;;;;;;;14.66;41.10;98972.81;4953106;28;20041;-96
2024/02/23 16:52:57;;;;;;;8.85;4.40;;;;;;;14.65;41.00;98980.16;4883947;29;20031;-96
2024/02/23 16:55:35;;;;;;;12.13;5.35;;;;;;;14.58;41.22;98979.75;4929368;29;20494;-96
2024/02/23 16:58:02;;;;;;;25.88;7.88;;;;;;;14.59;41.89;98994.91;4929795;29;20186;-96
2024/02/23 17:00:29;;;;;;;12.35;5.38;;;;;;;14.51;41.25;98980.16;4927888;29;20027;-96
2024/02/23 17:03:04;;;;;;;13.57;6.00;;;;;;;14.48;41.77;98988.06;4927648;29;20039;-96
2024/02/23 17:05:44;;;;;;;16.48;7.18;;;;;;;14.38;42.00;98980.97;4962320;28;20035;-96
2024/02/23 17:16:33;;;;;;;;;;;;;;;14.35;42.78;98993.19;4948077;28;20063;-96
2024/02/23 17:47:28;;;;;;;8.10;4.80;;;;;;;13.83;43.89;98998.00;5212787;23;20054;-94
2024/02/23 17:49:54;;;;;;;9.15;5.07;;;;;;;13.80;44.12;98995.91;4947399;28;20124;-96
2024/02/23 17:52:20;;;;;;;8.02;4.97;;;;;;;13.78;44.06;98998.13;4948322;28;20026;-95
2024/02/23 17:54:45;;;;;;;10.27;4.85;;;;;;;13.79;44.44;99002.41;4948535;28;20472;-95
2024/02/23 17:57:11;;;;;;;11.77;7.53;;;;;;;13.74;44.68;98991.69;4964734;28;20026;-94
2024/02/23 17:59:39;;;;;;;14.43;5.57;;;;;;;13.80;44.84;98998.63;4948280;28;20022;-95
2024/02/23 18:02:05;;;;;;;17.42;6.10;;;;;;;13.69;45.12;98992.56;4964901;28;20097;-95
2024/02/23 18:04:31;;;;;;;10.38;5.32;;;;;;;13.66;45.15;98987.78;4949470;28;20022;-95
2024/02/23 18:06:58;;;;;;;11.32;4.57;;;;;;;13.72;45.71;99004.72;4949904;28;20022;-95
2024/02/23 18:09:23;;;;;;;10.75;4.60;;;;;;;13.63;46.07;98999.19;4964143;28;20441;-95
2024/02/23 18:11:49;;;;;;;10.98;4.85;;;;;;;13.57;46.05;98992.25;4948844;28;20030;-95
2024/02/23 18:14:17;;;;;;;10.95;5.20;;;;;;;13.54;46.65;99003.69;4949886;28;20022;-95
2024/02/23 18:16:44;;;;;;;8.50;4.63;;;;;;;13.53;46.39;99005.59;4947655;28;20037;-95
2024/02/23 18:19:10;;;;;;;13.88;5.60;;;;;;;13.44;46.69;99001.94;4947528;28;20500;-95
2024/02/23 18:21:36;;;;;;;15.07;5.93;;;;;;;13.53;46.87;99026.44;4947661;28;20110;-96
2024/02/23 18:24:02;;;;;;;12.40;5.38;;;;;;;13.48;47.05;99026.50;4948408;28;20042;-95
2024/02/23 18:26:27;;;;;;;9.02;5.50;;;;;;;13.33;47.00;99008.63;4948526;28;20014;-95
2024/02/23 18:28:53;;;;;;;12.23;7.18;;;;;;;13.36;47.43;99010.72;4948058;28;20397;-94
2024/02/23 18:31:29;;;;;;;;;;;;;;;;;;;;;
2024/02/23 18:33:54;;;;;;;14.38;7.40;;;;;;;13.37;47.35;99023.16;4967730;28;20384;-95
2024/02/23 18:36:23;;;;;;;12.15;8.25;;;;;;;13.30;47.54;99034.38;4946992;28;20030;-96
2024/02/23 18:38:51;;;;;;;13.00;7.50;;;;;;;13.30;48.09;99036.25;4951650;28;20555;-96
2024/02/23 18:41:17;;;;;;;12.77;7.07;;;;;;;13.23;48.04;99023.06;4948135;28;20027;-94
2024/02/23 18:43:44;;;;;;;10.00;6.70;;;;;;;13.21;48.59;99027.19;4947806;28;20039;-95